createdAt,value
2019-05-29T00:00:14.691Z,99.90
2019-05-29T00:02:43.592Z,99.90
2019-05-29T00:05:12.771Z,99.90
2019-05-29T00:07:41.601Z,99.90
2019-05-29T00:10:12.328Z,99.90
2019-05-29T00:12:41.225Z,99.90
2019-05-29T00:15:10.659Z,99.90
2019-05-29T00:17:39.640Z,99.90
2019-05-29T00:20:10.487Z,99.90
2019-05-29T00:22:39.561Z,99.90
2019-05-29T00:25:10.537Z,99.90
2019-05-29T00:27:39.657Z,99.90
2019-05-29T00:30:08.990Z,99.90
2019-05-29T00:32:38.125Z,99.90
2019-05-29T00:35:08.320Z,99.90
2019-05-29T00:37:37.487Z,99.90
2019-05-29T00:40:06.814Z,99.90
2019-05-29T00:42:37.563Z,99.90
2019-05-29T00:45:07.511Z,99.90
2019-05-29T00:47:36.299Z,99.90
2019-05-29T00:50:05.718Z,99.90
2019-05-29T00:52:36.897Z,99.90
2019-05-29T00:55:05.910Z,99.90
2019-05-29T00:57:37.119Z,99.90
2019-05-29T01:00:06.327Z,99.90
2019-05-29T01:02:35.211Z,99.90
2019-05-29T01:05:06.872Z,99.90
2019-05-29T01:07:35.890Z,99.90
2019-05-29T01:10:05.858Z,99.90
2019-05-29T01:12:35.795Z,99.90
2019-05-29T01:15:05.691Z,99.90
2019-05-29T01:17:34.707Z,99.90
2019-05-29T01:20:03.711Z,99.90
2019-05-29T01:22:33.738Z,99.90
2019-05-29T01:25:04.950Z,99.90
2019-05-29T01:27:33.921Z,99.90
2019-05-29T01:30:02.719Z,99.90
2019-05-29T01:32:31.511Z,99.90
2019-05-29T01:35:00.288Z,99.90
2019-05-29T01:37:29.341Z,99.90
2019-05-29T01:39:58.189Z,99.90
2019-05-29T01:42:27.725Z,99.90
2019-05-29T01:45:07.197Z,99.90
2019-05-29T01:47:28.047Z,99.90
2019-05-29T01:49:57.891Z,99.90
2019-05-29T01:52:28.009Z,99.90
2019-05-29T01:54:57.071Z,99.90
2019-05-29T01:57:27.988Z,99.90
2019-05-29T01:59:57.182Z,99.90
2019-05-29T02:02:25.914Z,99.90
2019-05-29T02:04:54.875Z,99.90
2019-05-29T02:07:25.890Z,99.90
2019-05-29T02:09:54.672Z,99.90
2019-05-29T02:12:24.422Z,99.90
2019-05-29T02:14:53.557Z,99.90
2019-05-29T02:17:22.392Z,99.90
2019-05-29T02:19:51.177Z,99.90
2019-05-29T02:22:20.942Z,99.90
2019-05-29T02:24:49.784Z,99.90
2019-05-29T02:27:19.478Z,99.90
2019-05-29T02:29:48.501Z,99.90
2019-05-29T02:32:17.790Z,99.90
2019-05-29T02:34:47.805Z,99.90
2019-05-29T02:37:18.146Z,99.90
2019-05-29T02:39:47.299Z,99.90
2019-05-29T02:42:16.174Z,99.90
2019-05-29T02:44:45.019Z,99.90
2019-05-29T02:47:13.983Z,99.90
2019-05-29T02:49:43.014Z,99.90
2019-05-29T02:52:11.857Z,99.90
2019-05-29T02:54:40.639Z,99.90
2019-05-29T02:57:09.675Z,99.90
2019-05-29T02:59:38.454Z,99.90
2019-05-29T03:02:07.222Z,99.90
2019-05-29T03:04:36.179Z,99.90
2019-05-29T03:07:05.110Z,99.90
2019-05-29T03:09:34.199Z,99.90
2019-05-29T03:12:03.003Z,99.90
2019-05-29T03:14:32.360Z,99.90
2019-05-29T03:17:06.938Z,99.90
2019-05-29T03:19:36.211Z,99.90
2019-05-29T03:22:05.179Z,99.90
2019-05-29T03:24:35.210Z,99.90
2019-05-29T03:27:04.619Z,99.90
2019-05-29T03:29:34.302Z,99.90
2019-05-29T03:32:03.896Z,99.90
2019-05-29T03:34:39.584Z,99.90
2019-05-29T03:37:03.942Z,99.90
2019-05-29T03:39:34.474Z,99.90
2019-05-29T03:42:03.483Z,99.90
2019-05-29T03:44:33.269Z,99.90
2019-05-29T03:47:02.891Z,99.90
2019-05-29T03:49:33.079Z,99.90
2019-05-29T03:52:02.160Z,99.90
2019-05-29T03:54:33.800Z,99.90
2019-05-29T03:57:03.275Z,99.90
2019-05-29T03:59:32.711Z,99.90
2019-05-29T04:02:01.702Z,99.90
2019-05-29T04:04:31.356Z,99.90
2019-05-29T04:07:01.207Z,99.90
2019-05-29T04:09:31.315Z,99.90
2019-05-29T04:12:00.425Z,99.90
2019-05-29T04:14:29.692Z,99.90
2019-05-29T04:17:00.757Z,99.90
2019-05-29T04:19:32.021Z,99.90
2019-05-29T04:22:05.661Z,99.90
2019-05-29T04:24:38.188Z,99.90
2019-05-29T04:27:12.271Z,99.90
2019-05-29T04:29:42.097Z,99.90
2019-05-29T04:32:10.877Z,99.90
2019-05-29T04:34:39.924Z,99.90
2019-05-29T04:37:08.926Z,99.90
2019-05-29T04:39:39.088Z,99.90
2019-05-29T04:42:08.175Z,99.90
2019-05-29T04:44:38.895Z,99.90
2019-05-29T04:47:11.411Z,99.90
2019-05-29T04:49:39.780Z,99.90
2019-05-29T04:52:09.087Z,99.90
2019-05-29T04:54:39.921Z,99.90
2019-05-29T04:57:08.473Z,99.90
2019-05-29T04:59:37.289Z,99.90
2019-05-29T05:02:06.151Z,99.90
2019-05-29T05:04:35.210Z,99.90
2019-05-29T05:07:04.335Z,99.90
2019-05-29T05:09:33.387Z,99.90
2019-05-29T05:12:02.331Z,99.90
2019-05-29T05:14:31.532Z,99.90
2019-05-29T05:17:04.201Z,99.90
2019-05-29T05:19:33.911Z,99.90
2019-05-29T05:22:02.906Z,99.90
2019-05-29T05:24:32.160Z,99.90
2019-05-29T05:27:01.439Z,99.90
2019-05-29T05:29:30.229Z,99.90
2019-05-29T05:31:59.413Z,99.90
2019-05-29T05:34:28.196Z,99.90
2019-05-29T05:36:57.059Z,99.90
2019-05-29T05:39:25.948Z,99.90
2019-05-29T05:41:54.741Z,99.90
2019-05-29T05:44:23.555Z,99.90
2019-05-29T05:46:53.408Z,99.90
2019-05-29T05:49:22.276Z,99.90
2019-05-29T05:51:51.141Z,99.90
2019-05-29T05:54:19.954Z,99.90
2019-05-29T05:56:48.796Z,99.90
2019-05-29T05:59:17.594Z,99.90
2019-05-29T06:01:46.432Z,99.90
2019-05-29T06:04:15.365Z,99.90
2019-05-29T06:06:44.443Z,99.90
2019-05-29T06:09:13.710Z,99.90
2019-05-29T06:11:42.675Z,99.90
2019-05-29T06:14:11.624Z,99.90
2019-05-29T06:16:40.721Z,99.90
2019-05-29T06:19:09.562Z,99.90
2019-05-29T06:21:38.819Z,99.90
2019-05-29T06:24:07.819Z,99.90
2019-05-29T06:26:36.839Z,99.90
2019-05-29T06:29:05.771Z,99.90
2019-05-29T06:31:35.219Z,99.90
2019-05-29T06:34:04.472Z,99.90
2019-05-29T06:36:33.496Z,99.90
2019-05-29T06:39:02.311Z,99.90
2019-05-29T06:41:31.265Z,99.90
2019-05-29T06:44:00.040Z,99.90
2019-05-29T06:46:28.846Z,99.90
2019-05-29T06:49:00.680Z,99.90
2019-05-29T06:51:28.221Z,99.90
2019-05-29T06:53:57.156Z,99.90
2019-05-29T06:56:26.083Z,99.90
2019-05-29T06:58:54.871Z,99.90
2019-05-29T07:01:23.806Z,99.90
2019-05-29T07:04:10.078Z,99.90
2019-05-29T07:06:23.247Z,99.90
2019-05-29T07:08:52.090Z,99.90
2019-05-29T07:11:20.844Z,99.90
2019-05-29T07:13:50.561Z,99.90
2019-05-29T07:16:19.847Z,99.90
2019-05-29T07:19:23.197Z,99.90
2019-05-29T07:21:19.261Z,99.90
2019-05-29T07:23:48.753Z,99.90
2019-05-29T07:26:18.086Z,99.90
2019-05-29T07:29:03.008Z,99.90
2019-05-29T07:31:17.531Z,99.90
2019-05-29T07:33:47.284Z,99.90
2019-05-29T07:36:16.277Z,99.90
2019-05-29T07:38:56.180Z,99.90
2019-05-29T07:41:15.639Z,99.90
2019-05-29T07:43:44.411Z,99.90
2019-05-29T07:46:13.263Z,99.90
2019-05-29T07:48:42.639Z,99.90
2019-05-29T07:51:11.620Z,99.90
2019-05-29T07:53:40.419Z,99.90
2019-05-29T07:56:21.598Z,99.90
2019-05-29T07:58:42.188Z,99.90
2019-05-29T08:01:13.594Z,99.90
2019-05-29T08:03:41.242Z,99.90
2019-05-29T08:06:10.437Z,99.90
2019-05-29T08:08:39.310Z,99.90
2019-05-29T08:11:08.171Z,99.90
2019-05-29T08:13:37.011Z,99.90
2019-05-29T08:16:05.964Z,99.90
2019-05-29T08:18:34.725Z,99.90
2019-05-29T08:21:03.634Z,99.90
2019-05-29T08:23:32.408Z,99.90
2019-05-29T08:26:01.264Z,99.90
2019-05-29T08:28:30.030Z,99.90
2019-05-29T08:30:58.923Z,99.90
2019-05-29T08:33:27.717Z,99.90
2019-05-29T08:36:00.212Z,99.90
2019-05-29T08:38:27.182Z,99.90
2019-05-29T08:40:56.039Z,99.90
2019-05-29T08:43:24.830Z,99.90
2019-05-29T08:45:54.771Z,99.90
2019-05-29T08:48:23.641Z,99.90
2019-05-29T08:50:52.499Z,99.90
2019-05-29T08:53:21.357Z,99.90
2019-05-29T08:55:52.724Z,99.90
2019-05-29T08:58:22.193Z,99.90
2019-05-29T09:00:54.780Z,99.90
2019-05-29T09:03:22.452Z,99.90
2019-05-29T09:06:06.907Z,99.90
2019-05-29T09:08:21.892Z,99.90
2019-05-29T09:10:51.854Z,99.90
2019-05-29T09:13:21.023Z,99.90
2019-05-29T09:15:50.179Z,99.90
2019-05-29T09:18:19.731Z,99.90
2019-05-29T09:21:02.725Z,99.90
2019-05-29T09:23:19.364Z,99.90
2019-05-29T09:25:48.275Z,99.90
2019-05-29T09:28:18.295Z,99.90
2019-05-29T09:30:48.170Z,99.90
2019-05-29T09:33:18.694Z,99.90
2019-05-29T09:35:47.570Z,99.90
2019-05-29T09:38:27.212Z,99.90
2019-05-29T09:40:56.067Z,99.90
2019-05-29T09:43:29.999Z,99.90
2019-05-29T09:45:56.228Z,99.90
2019-05-29T09:48:28.648Z,99.90
2019-05-29T09:50:57.555Z,99.90
2019-05-29T09:53:26.922Z,99.90
2019-05-29T09:55:57.810Z,99.90
2019-05-29T09:58:27.272Z,99.90
2019-05-29T10:01:15.377Z,99.90
2019-05-29T10:03:28.781Z,99.90
2019-05-29T10:05:57.863Z,99.90
2019-05-29T10:08:26.644Z,99.90
2019-05-29T10:11:04.647Z,99.90
2019-05-29T10:13:27.882Z,99.90
2019-05-29T10:15:57.726Z,99.90
2019-05-29T10:18:32.379Z,99.90
2019-05-29T10:20:59.552Z,99.90
2019-05-29T10:23:28.476Z,99.90
2019-05-29T10:25:58.814Z,99.90
2019-05-29T10:28:46.250Z,99.90
2019-05-29T10:31:03.180Z,99.90
2019-05-29T10:33:29.459Z,99.90
2019-05-29T10:35:58.453Z,99.90
2019-05-29T10:38:27.836Z,99.90
2019-05-29T10:41:06.440Z,99.90
2019-05-29T10:43:34.326Z,99.90
2019-05-29T10:45:57.896Z,99.90
2019-05-29T10:48:26.696Z,99.90
2019-05-29T10:50:55.534Z,99.90
2019-05-29T10:53:24.512Z,99.90
2019-05-29T10:55:54.976Z,99.90
2019-05-29T10:58:27.633Z,99.90
2019-05-29T11:00:56.524Z,99.90
2019-05-29T11:03:25.447Z,99.90
2019-05-29T11:05:54.334Z,99.90
2019-05-29T11:08:26.381Z,99.90
2019-05-29T11:10:56.330Z,99.90
2019-05-29T11:13:25.334Z,99.90
2019-05-29T11:15:54.796Z,99.90
2019-05-29T11:18:23.693Z,99.90
2019-05-29T11:20:53.453Z,99.90
2019-05-29T11:23:22.517Z,99.90
2019-05-29T11:25:52.100Z,99.90
2019-05-29T11:28:21.087Z,99.90
2019-05-29T11:30:51.973Z,99.90
2019-05-29T11:33:20.408Z,99.90
2019-05-29T11:36:05.986Z,99.90
2019-05-29T11:38:19.690Z,99.90
2019-05-29T11:40:49.155Z,99.90
2019-05-29T11:43:19.252Z,98.80
2019-05-29T11:45:48.275Z,99.60
2019-05-29T11:48:17.014Z,98.60
2019-05-29T11:50:46.695Z,98.70
2019-05-29T11:53:15.475Z,99.10
2019-05-29T11:55:44.297Z,99.50
2019-05-29T11:58:30.092Z,98.20
2019-05-29T12:00:44.911Z,98.30
2019-05-29T12:03:13.737Z,98.50
2019-05-29T12:05:42.520Z,98.50
2019-05-29T12:08:11.510Z,98.80
2019-05-29T12:10:40.301Z,98.00
2019-05-29T12:13:09.119Z,97.00
2019-05-29T12:15:42.375Z,97.30
2019-05-29T12:18:23.045Z,96.70
2019-05-29T12:20:41.887Z,96.40
2019-05-29T12:23:24.761Z,97.40
2019-05-29T12:25:41.302Z,97.90
2019-05-29T12:28:10.150Z,97.10
2019-05-29T12:30:42.727Z,96.40
2019-05-29T12:33:11.978Z,95.60
2019-05-29T12:35:42.581Z,95.60
2019-05-29T12:38:15.268Z,96.40
2019-05-29T12:40:44.030Z,95.80
2019-05-29T12:43:26.543Z,94.60
2019-05-29T12:48:57.595Z,95.30
2019-05-29T12:51:32.424Z,95.40
2019-05-29T12:54:10.566Z,92.90
2019-05-29T12:56:39.289Z,92.80
2019-05-29T12:59:08.559Z,93.60
2019-05-29T13:01:40.393Z,93.20
2019-05-29T13:04:17.791Z,92.00
2019-05-29T13:06:46.720Z,92.40
2019-05-29T13:09:15.921Z,92.40
2019-05-29T13:11:44.673Z,91.90
2019-05-29T13:14:14.239Z,92.00
2019-05-29T13:16:44.187Z,92.10
2019-05-29T13:19:13.051Z,92.10
2019-05-29T13:21:48.479Z,91.60
2019-05-29T13:24:17.279Z,91.80
2019-05-29T13:26:46.960Z,92.60
2019-05-29T13:32:07.376Z,92.50
2019-05-29T13:34:36.480Z,92.20
2019-05-29T13:37:13.203Z,92.50
2019-05-29T13:39:53.317Z,91.70
2019-05-29T13:42:26.382Z,92.10
2019-05-29T13:44:58.945Z,91.40
2019-05-29T13:47:27.524Z,92.20
2019-05-29T13:49:58.891Z,91.80
2019-05-29T13:52:48.432Z,92.00
2019-05-29T13:55:20.290Z,92.10
2019-05-29T13:57:49.731Z,91.70
2019-05-29T14:00:33.225Z,90.70
2019-05-29T14:02:49.801Z,90.70
2019-05-29T14:05:18.942Z,91.00
2019-05-29T14:07:48.031Z,90.80
2019-05-29T14:10:17.030Z,91.80
2019-05-29T14:12:47.390Z,90.90
2019-05-29T14:15:16.707Z,90.90
2019-05-29T14:17:45.542Z,90.20
2019-05-29T14:20:15.101Z,89.60
2019-05-29T14:22:44.332Z,90.50
2019-05-29T14:25:15.952Z,90.00
2019-05-29T14:27:46.250Z,90.30
2019-05-29T14:30:16.043Z,89.90
2019-05-29T14:32:46.813Z,89.70
2019-05-29T14:35:18.635Z,89.10
2019-05-29T14:37:49.994Z,90.20
2019-05-29T14:40:20.207Z,91.00
2019-05-29T14:42:51.726Z,91.10
2019-05-29T14:45:20.601Z,90.00
2019-05-29T14:47:49.406Z,89.90
2019-05-29T14:50:18.349Z,90.40
2019-05-29T14:52:47.115Z,90.10
2019-05-29T14:55:18.445Z,90.60
2019-05-29T14:57:47.674Z,89.60
2019-05-29T15:00:24.830Z,89.30
2019-05-29T15:02:47.659Z,90.30
2019-05-29T15:05:17.214Z,90.20
2019-05-29T15:07:46.366Z,89.40
2019-05-29T15:10:27.045Z,90.20
2019-05-29T15:12:53.054Z,90.20
2019-05-29T15:15:21.952Z,89.70
2019-05-29T15:17:50.887Z,90.00
2019-05-29T15:20:31.567Z,90.60
2019-05-29T15:23:11.509Z,89.20
2019-05-29T15:25:40.453Z,89.10
2019-05-29T15:28:12.561Z,88.70
2019-05-29T15:30:42.223Z,89.10
2019-05-29T15:33:12.579Z,89.30
2019-05-29T15:35:45.602Z,89.30
2019-05-29T15:38:17.074Z,88.30
2019-05-29T15:40:49.726Z,88.90
2019-05-29T15:43:18.660Z,90.00
2019-05-29T15:45:48.341Z,88.70
2019-05-29T15:48:17.544Z,89.10
2019-05-29T15:50:46.543Z,89.80
2019-05-29T15:53:15.328Z,88.80
2019-05-29T15:55:44.138Z,89.60
2019-05-29T15:58:13.442Z,88.30
2019-05-29T16:00:44.166Z,87.80
2019-05-29T16:03:15.616Z,87.70
2019-05-29T16:05:51.733Z,88.00
2019-05-29T16:08:23.635Z,88.50
2019-05-29T16:10:52.863Z,88.10
2019-05-29T16:13:21.920Z,88.50
2019-05-29T16:15:54.437Z,88.30
2019-05-29T16:18:38.060Z,88.10
2019-05-29T16:21:07.940Z,89.40
2019-05-29T16:23:39.432Z,87.90
2019-05-29T16:26:11.383Z,86.90
2019-05-29T16:28:41.420Z,86.10
2019-05-29T16:31:14.881Z,86.60
2019-05-29T16:34:04.891Z,85.70
2019-05-29T16:36:36.515Z,84.80
2019-05-29T16:39:09.881Z,85.50
2019-05-29T16:41:38.631Z,86.30
2019-05-29T16:44:07.496Z,86.60
2019-05-29T16:46:36.457Z,87.40
2019-05-29T16:49:05.331Z,87.80
2019-05-29T16:51:36.126Z,86.90
2019-05-29T16:54:06.252Z,87.70
2019-05-29T16:56:35.866Z,88.30
2019-05-29T16:59:17.079Z,87.70
2019-05-29T17:01:46.206Z,88.70
2019-05-29T17:04:26.038Z,88.60
2019-05-29T17:06:58.616Z,89.60
2019-05-29T17:09:28.657Z,89.10
2019-05-29T17:11:57.485Z,87.60
2019-05-29T17:14:26.291Z,85.50
2019-05-29T17:16:55.182Z,87.20
2019-05-29T17:19:25.291Z,87.20
2019-05-29T17:21:55.314Z,86.80
2019-05-29T17:24:25.029Z,87.10
2019-05-29T17:26:57.687Z,87.10
2019-05-29T17:29:26.466Z,87.10
2019-05-29T17:31:55.410Z,86.20
2019-05-29T17:34:25.362Z,86.50
2019-05-29T17:37:00.114Z,86.50
2019-05-29T17:39:31.372Z,86.80
2019-05-29T17:42:07.258Z,87.10
2019-05-29T17:44:38.273Z,86.50
2019-05-29T17:47:11.080Z,87.10
2019-05-29T17:49:39.857Z,87.70
2019-05-29T17:52:09.344Z,88.00
2019-05-29T17:54:38.148Z,88.20
2019-05-29T17:57:07.288Z,88.70
2019-05-29T17:59:36.232Z,88.60
2019-05-29T18:02:07.349Z,88.30
2019-05-29T18:04:36.126Z,88.90
2019-05-29T18:07:05.198Z,88.70
2019-05-29T18:09:33.973Z,88.30
2019-05-29T18:12:06.646Z,88.00
2019-05-29T18:14:36.154Z,88.70
2019-05-29T18:17:05.789Z,89.20
2019-05-29T18:19:37.714Z,90.00
2019-05-29T18:22:06.719Z,90.10
2019-05-29T18:24:36.081Z,90.40
2019-05-29T18:27:05.151Z,90.40
2019-05-29T18:29:33.906Z,90.70
2019-05-29T18:32:02.672Z,90.80
2019-05-29T18:34:31.496Z,90.80
2019-05-29T18:37:00.321Z,91.10
2019-05-29T18:39:30.690Z,91.20
2019-05-29T18:41:59.673Z,91.40
2019-05-29T18:44:33.051Z,91.60
2019-05-29T18:47:02.156Z,91.70
2019-05-29T18:49:31.244Z,91.90
2019-05-29T18:52:01.246Z,92.10
2019-05-29T18:54:30.134Z,92.40
2019-05-29T18:57:14.709Z,92.50
2019-05-29T18:59:29.756Z,92.60
2019-05-29T19:01:58.637Z,92.80
2019-05-29T19:04:38.201Z,93.00
2019-05-29T19:07:07.811Z,93.00
2019-05-29T19:09:36.747Z,93.30
2019-05-29T19:12:05.614Z,93.40
2019-05-29T19:14:34.490Z,93.30
2019-05-29T19:17:05.033Z,93.40
2019-05-29T19:19:33.927Z,93.50
2019-05-29T19:22:03.077Z,93.60
2019-05-29T19:24:36.261Z,93.70
2019-05-29T19:27:07.584Z,93.70
2019-05-29T19:29:36.401Z,93.80
2019-05-29T19:32:05.924Z,94.10
2019-05-29T19:34:34.740Z,94.30
2019-05-29T19:37:03.723Z,94.50
2019-05-29T19:39:32.481Z,94.70
2019-05-29T19:42:01.306Z,95.00
2019-05-29T19:44:32.426Z,95.20
2019-05-29T19:47:02.272Z,95.40
2019-05-29T19:49:31.517Z,95.60
2019-05-29T19:52:01.568Z,96.00
2019-05-29T19:54:31.457Z,96.50
2019-05-29T19:57:02.355Z,97.30
2019-05-29T19:59:32.061Z,98.10
2019-05-29T20:02:01.364Z,98.40
2019-05-29T20:04:30.541Z,98.80
2019-05-29T20:06:59.485Z,99.20
2019-05-29T20:09:29.131Z,99.60
2019-05-29T20:11:59.841Z,99.90
2019-05-29T20:14:29.610Z,99.90
2019-05-29T20:16:59.027Z,99.90
2019-05-29T20:19:33.989Z,99.90
2019-05-29T20:22:00.675Z,99.90
2019-05-29T20:24:31.260Z,99.90
2019-05-29T20:27:00.229Z,99.90
2019-05-29T20:29:30.205Z,99.90
2019-05-29T20:32:01.126Z,99.90
2019-05-29T20:34:30.690Z,99.90
2019-05-29T20:36:59.872Z,99.90
2019-05-29T20:39:28.621Z,99.90
2019-05-29T20:41:57.583Z,99.90
2019-05-29T20:44:26.351Z,99.90
2019-05-29T20:46:58.192Z,99.90
2019-05-29T20:49:27.022Z,99.90
2019-05-29T20:51:55.916Z,99.90
2019-05-29T20:54:27.062Z,99.90
2019-05-29T20:56:55.923Z,99.90
2019-05-29T20:59:24.903Z,99.90
2019-05-29T21:01:54.907Z,99.90
2019-05-29T21:04:23.727Z,99.90
2019-05-29T21:06:52.674Z,99.90
2019-05-29T21:09:21.459Z,99.90
2019-05-29T21:11:50.286Z,99.90
2019-05-29T21:14:19.699Z,99.90
2019-05-29T21:16:48.687Z,99.90
2019-05-29T21:19:17.775Z,99.90
2019-05-29T21:21:46.910Z,99.90
2019-05-29T21:24:15.653Z,99.90
2019-05-29T21:26:45.212Z,99.90
2019-05-29T21:29:14.168Z,99.90
2019-05-29T21:31:43.709Z,99.90
2019-05-29T21:34:13.750Z,99.90
2019-05-29T21:36:46.350Z,99.90
2019-05-29T21:39:18.102Z,99.90
2019-05-29T21:41:47.323Z,99.90
2019-05-29T21:44:16.293Z,99.90
2019-05-29T21:46:47.694Z,99.90
2019-05-29T21:49:18.696Z,99.90
2019-05-29T21:51:57.693Z,99.90
2019-05-29T21:54:26.447Z,99.90
2019-05-29T21:56:59.729Z,99.90
2019-05-29T21:59:28.871Z,99.90
2019-05-29T22:02:00.569Z,99.90
2019-05-29T22:07:23.604Z,99.90
2019-05-29T22:10:07.447Z,99.90
2019-05-29T22:12:36.786Z,99.90
2019-05-29T22:15:11.379Z,99.90
2019-05-29T22:17:43.223Z,99.90
2019-05-29T22:20:17.101Z,99.90
2019-05-29T22:22:53.068Z,99.90
2019-05-29T22:25:23.341Z,99.90
2019-05-29T22:27:59.964Z,99.90
2019-05-29T22:30:31.287Z,99.90
2019-05-29T22:33:02.323Z,99.90
2019-05-29T22:35:31.231Z,99.90
2019-05-29T22:38:05.738Z,99.90
2019-05-29T22:40:36.306Z,99.90
2019-05-29T22:43:08.492Z,99.90
2019-05-29T22:45:43.038Z,99.90
2019-05-29T22:48:13.158Z,99.90
2019-05-29T22:50:42.051Z,99.90
2019-05-29T22:53:11.349Z,99.90
2019-05-29T22:55:41.842Z,99.90
2019-05-29T22:58:13.864Z,99.90
2019-05-29T23:00:43.991Z,99.90
2019-05-29T23:03:16.513Z,99.90
2019-05-29T23:05:45.493Z,99.90
2019-05-29T23:08:15.530Z,99.90
2019-05-29T23:10:46.832Z,99.90
2019-05-29T23:13:16.726Z,99.90
2019-05-29T23:15:45.963Z,99.90
2019-05-29T23:18:14.774Z,99.90
2019-05-29T23:20:46.579Z,99.90
2019-05-29T23:23:33.358Z,99.90
2019-05-29T23:26:05.409Z,99.90
2019-05-29T23:28:35.496Z,99.90
2019-05-29T23:31:04.988Z,99.90
2019-05-29T23:33:33.916Z,99.90
2019-05-29T23:36:03.263Z,99.90
2019-05-29T23:38:55.036Z,99.90
2019-05-29T23:44:19.136Z,99.90
2019-05-29T23:46:50.789Z,99.90
2019-05-29T23:49:20.710Z,99.90
2019-05-29T23:51:49.843Z,99.90
2019-05-29T23:54:19.240Z,99.90
2019-05-29T23:56:48.688Z,99.90
2019-05-29T23:59:18.109Z,99.90
